createdAt,value
2023-01-06T00:01:03.755Z,100781.34
2023-01-06T00:03:53.017Z,100782.53
2023-01-06T00:06:41.534Z,100774.47
2023-01-06T00:09:30.042Z,100770.78
2023-01-06T00:12:19.912Z,100770.34
2023-01-06T00:15:08.957Z,100773.28
2023-01-06T00:17:57.604Z,100773.47
2023-01-06T00:20:46.058Z,100762.94
2023-01-06T00:23:35.118Z,100766.44
2023-01-06T00:26:24.006Z,100767.66
2023-01-06T00:29:13.889Z,100761.63
2023-01-06T00:32:02.957Z,100644.69
2023-01-06T00:34:51.396Z,100748.34
2023-01-06T00:37:39.868Z,100751.47
2023-01-06T00:40:28.427Z,100742.03
2023-01-06T00:43:16.877Z,100733.91
2023-01-06T00:46:06.871Z,100727.13
2023-01-06T00:49:04.642Z,100732.38
2023-01-06T00:51:53.868Z,100732.00
2023-01-06T00:54:42.955Z,100734.91
2023-01-06T00:57:31.397Z,100728.53
2023-01-06T01:00:19.986Z,100725.50
2023-01-06T01:03:09.784Z,100731.34
2023-01-06T01:06:00.580Z,100722.44
2023-01-06T01:08:49.014Z,100735.34
2023-01-06T01:11:54.894Z,100732.72
2023-01-06T01:14:47.092Z,100743.13
2023-01-06T01:17:35.547Z,100742.97
2023-01-06T01:20:26.121Z,100731.72
2023-01-06T01:23:14.856Z,100744.00
2023-01-06T01:26:03.325Z,100734.50
2023-01-06T01:28:52.463Z,100714.56
2023-01-06T01:31:41.413Z,100707.09
2023-01-06T01:34:30.184Z,100744.22
2023-01-06T01:37:20.145Z,100728.75
2023-01-06T01:40:10.463Z,100732.47
2023-01-06T01:42:59.227Z,100730.19
2023-01-06T01:45:49.330Z,100724.59
2023-01-06T01:48:38.626Z,100721.09
2023-01-06T01:51:30.278Z,100724.16
2023-01-06T01:54:23.462Z,100723.16
2023-01-06T01:57:16.171Z,100724.28
2023-01-06T02:00:06.083Z,100722.59
2023-01-06T02:02:54.779Z,100721.78
2023-01-06T02:05:46.477Z,100723.03
2023-01-06T02:08:38.859Z,100720.63
2023-01-06T02:11:30.666Z,100719.63
2023-01-06T02:14:22.542Z,100719.38
2023-01-06T02:17:21.612Z,100721.00
2023-01-06T02:20:35.222Z,100725.75
2023-01-06T02:23:41.642Z,100723.31
2023-01-06T02:26:57.949Z,100725.34
2023-01-06T02:30:31.711Z,100721.81
2023-01-06T02:33:25.153Z,100722.00
2023-01-06T02:36:23.734Z,100721.19
2023-01-06T02:39:19.952Z,100727.66
2023-01-06T02:42:19.128Z,100730.50
2023-01-06T02:45:15.276Z,100736.03
2023-01-06T02:48:08.772Z,100727.66
2023-01-06T02:51:05.196Z,100726.19
2023-01-06T02:54:02.050Z,100738.88
2023-01-06T02:56:55.315Z,100596.31
2023-01-06T02:59:48.217Z,100725.72
2023-01-06T03:02:38.459Z,100729.47
2023-01-06T03:05:28.999Z,100715.50
2023-01-06T03:08:21.909Z,100722.97
2023-01-06T03:11:10.500Z,100719.63
2023-01-06T03:14:01.022Z,100707.56
2023-01-06T03:16:49.507Z,100717.75
2023-01-06T03:19:38.160Z,100719.16
2023-01-06T03:22:26.942Z,100709.19
2023-01-06T03:25:17.110Z,100717.47
2023-01-06T03:28:05.893Z,100708.41
2023-01-06T03:30:57.918Z,100716.47
2023-01-06T03:33:55.008Z,100705.09
2023-01-06T03:36:51.410Z,100705.53
2023-01-06T03:39:42.457Z,100710.06
2023-01-06T03:42:54.189Z,100715.84
2023-01-06T03:46:06.164Z,100723.31
2023-01-06T03:48:59.382Z,100713.53
2023-01-06T03:51:50.483Z,100727.28
2023-01-06T03:54:42.413Z,100713.84
2023-01-06T03:57:34.550Z,100710.50
2023-01-06T04:00:26.290Z,100707.38
2023-01-06T04:03:15.331Z,100701.81
2023-01-06T04:06:03.829Z,100706.78
2023-01-06T04:08:52.426Z,100692.56
2023-01-06T04:11:58.459Z,100707.16
2023-01-06T04:14:48.355Z,100696.81
2023-01-06T04:17:37.335Z,100699.88
2023-01-06T04:20:27.712Z,100688.03
2023-01-06T04:23:16.138Z,100693.28
2023-01-06T04:26:04.775Z,100698.25
2023-01-06T04:28:53.316Z,100691.38
2023-01-06T04:31:43.345Z,100689.53
2023-01-06T04:34:31.850Z,100686.44
2023-01-06T04:37:21.555Z,100658.56
2023-01-06T04:40:11.182Z,100677.28
2023-01-06T04:43:05.545Z,100668.69
2023-01-06T04:45:54.487Z,100660.19
2023-01-06T04:48:44.438Z,100652.41
2023-01-06T04:51:33.075Z,100664.25
2023-01-06T04:54:21.585Z,100669.63
2023-01-06T04:57:10.063Z,100661.06
2023-01-06T04:59:58.612Z,100661.06
2023-01-06T05:02:48.804Z,100663.75
2023-01-06T05:05:39.229Z,100664.19
2023-01-06T05:08:27.786Z,100665.44
2023-01-06T05:11:18.126Z,100662.53
2023-01-06T05:14:06.700Z,100660.66
2023-01-06T05:16:55.290Z,100634.50
2023-01-06T05:19:44.483Z,100662.69
2023-01-06T05:22:34.469Z,100657.28
2023-01-06T05:25:22.987Z,100662.66
2023-01-06T05:28:11.609Z,100661.44
2023-01-06T05:31:01.178Z,100669.88
2023-01-06T05:33:49.625Z,100664.44
2023-01-06T05:36:38.155Z,100662.19
2023-01-06T05:39:28.008Z,100664.25
2023-01-06T05:42:17.466Z,100671.19
2023-01-06T05:45:06.847Z,100660.94
2023-01-06T05:47:55.263Z,100671.44
2023-01-06T05:50:43.770Z,100670.38
2023-01-06T05:53:33.508Z,100656.75
2023-01-06T05:56:23.901Z,100666.50
2023-01-06T05:59:12.483Z,100676.19
2023-01-06T06:02:00.985Z,100671.59
2023-01-06T06:04:49.559Z,100677.38
2023-01-06T06:07:38.064Z,100675.47
2023-01-06T06:10:26.641Z,100690.81
2023-01-06T06:13:16.508Z,100683.97
2023-01-06T06:16:06.675Z,100659.91
2023-01-06T06:18:56.626Z,100674.06
2023-01-06T06:21:45.123Z,100694.97
2023-01-06T06:24:33.529Z,100703.63
2023-01-06T06:27:22.006Z,100700.47
2023-01-06T06:30:12.836Z,100706.69
2023-01-06T06:33:01.237Z,100701.31
2023-01-06T06:35:57.671Z,100706.59
2023-01-06T06:38:47.677Z,100676.41
2023-01-06T06:41:36.144Z,100713.81
2023-01-06T06:44:24.610Z,100706.59
2023-01-06T06:47:15.878Z,100714.84
2023-01-06T06:50:04.779Z,100714.84
2023-01-06T06:52:53.649Z,100716.72
2023-01-06T06:55:42.036Z,100715.22
2023-01-06T06:58:30.643Z,100715.72
2023-01-06T07:01:20.426Z,100682.03
2023-01-06T07:04:11.073Z,100721.06
2023-01-06T07:06:59.578Z,100716.50
2023-01-06T07:09:48.929Z,100726.13
2023-01-06T07:12:37.490Z,100728.53
2023-01-06T07:15:25.954Z,100732.22
2023-01-06T07:18:14.495Z,100729.31
2023-01-06T07:21:05.915Z,100749.19
2023-01-06T07:23:54.493Z,100740.09
2023-01-06T07:26:42.999Z,100736.78
2023-01-06T07:29:31.448Z,100738.97
2023-01-06T07:32:19.950Z,100745.66
2023-01-06T07:35:08.973Z,100740.53
2023-01-06T07:38:03.444Z,100744.50
2023-01-06T07:40:52.009Z,100718.50
2023-01-06T07:43:40.795Z,100751.28
2023-01-06T07:46:31.556Z,100758.97
2023-01-06T07:49:20.047Z,100764.53
2023-01-06T07:52:08.530Z,100763.06
2023-01-06T07:54:59.581Z,100772.75
2023-01-06T07:57:48.145Z,100762.03
2023-01-06T08:00:37.055Z,100757.16
2023-01-06T08:03:25.609Z,100777.19
2023-01-06T08:06:14.808Z,100736.25
2023-01-06T08:09:03.285Z,100780.09
2023-01-06T08:11:53.073Z,100760.03
2023-01-06T08:14:41.562Z,100772.09
2023-01-06T08:17:30.701Z,100781.88
2023-01-06T08:20:19.216Z,100773.69
2023-01-06T08:23:07.639Z,100759.94
2023-01-06T08:26:02.780Z,100786.16
2023-01-06T08:28:53.506Z,100775.41
2023-01-06T08:31:42.300Z,100781.94
2023-01-06T08:34:30.816Z,100785.03
2023-01-06T08:37:19.312Z,100783.19
2023-01-06T08:40:08.643Z,100786.06
2023-01-06T08:42:57.205Z,100778.53
2023-01-06T08:45:47.076Z,100722.13
2023-01-06T08:48:36.296Z,100768.22
2023-01-06T08:51:25.945Z,100774.41
2023-01-06T08:54:15.150Z,100736.34
2023-01-06T08:57:04.544Z,100779.75
2023-01-06T08:59:52.992Z,100787.06
2023-01-06T09:02:42.919Z,100781.97
2023-01-06T09:05:31.422Z,100770.88
2023-01-06T09:08:19.908Z,100792.47
2023-01-06T09:11:09.458Z,100785.84
2023-01-06T09:13:59.336Z,100788.75
2023-01-06T09:16:48.784Z,100799.47
2023-01-06T09:19:20.436Z,100799.88
2023-01-06T09:21:48.689Z,100801.47
2023-01-06T09:24:17.142Z,100807.25
2023-01-06T09:26:45.439Z,100796.69
2023-01-06T09:29:13.599Z,100802.03
2023-01-06T09:31:41.737Z,100787.72
2023-01-06T09:34:10.054Z,100780.25
2023-01-06T09:36:39.731Z,100792.47
2023-01-06T09:39:08.174Z,100797.59
2023-01-06T09:42:13.302Z,100744.47
2023-01-06T09:44:47.355Z,100792.00
2023-01-06T09:47:18.778Z,100786.63
2023-01-06T09:49:51.066Z,100783.34
2023-01-06T09:52:25.636Z,100786.47
2023-01-06T09:54:56.275Z,100787.09
2023-01-06T09:57:29.806Z,100791.84
2023-01-06T10:00:00.092Z,100799.50
2023-01-06T10:02:31.372Z,100801.13
2023-01-06T10:04:59.743Z,100785.00
2023-01-06T10:07:35.038Z,100789.78
2023-01-06T10:10:13.589Z,100777.31
2023-01-06T10:12:49.616Z,100777.56
2023-01-06T10:15:23.006Z,100703.50
2023-01-06T10:18:01.997Z,100774.88
2023-01-06T10:20:59.742Z,100782.78
2023-01-06T10:23:52.765Z,100789.03
2023-01-06T10:26:28.619Z,100786.56
2023-01-06T10:29:02.766Z,100779.88
2023-01-06T10:31:35.408Z,100780.91
2023-01-06T10:34:04.413Z,100778.38
2023-01-06T10:36:33.698Z,100774.81
2023-01-06T10:39:07.127Z,100768.41
2023-01-06T10:41:41.867Z,100771.09
2023-01-06T10:44:11.651Z,100727.53
2023-01-06T10:46:40.354Z,100761.94
2023-01-06T10:49:15.854Z,100753.84
2023-01-06T10:51:45.796Z,100754.34
2023-01-06T10:54:18.102Z,100758.75
2023-01-06T10:56:49.373Z,100757.75
2023-01-06T10:59:17.632Z,100754.25
2023-01-06T11:01:50.489Z,100731.44
2023-01-06T11:04:19.842Z,100761.34
2023-01-06T11:06:51.765Z,100755.34
2023-01-06T11:09:28.072Z,100761.19
2023-01-06T11:11:58.781Z,100716.63
2023-01-06T11:14:29.552Z,100750.19
2023-01-06T11:16:59.593Z,100672.88
2023-01-06T11:19:35.627Z,100768.84
2023-01-06T11:22:04.427Z,100764.25
2023-01-06T11:24:34.093Z,100749.13
2023-01-06T11:27:14.925Z,100772.97
2023-01-06T11:29:43.125Z,100769.25
2023-01-06T11:32:16.947Z,100761.97
2023-01-06T11:34:53.020Z,100750.34
2023-01-06T11:37:31.536Z,100761.78
2023-01-06T11:40:10.359Z,100752.84
2023-01-06T11:45:08.648Z,100751.81
2023-01-06T11:47:36.843Z,100742.72
2023-01-06T11:50:05.808Z,100729.25
2023-01-06T11:52:35.152Z,100747.47
2023-01-06T11:55:21.263Z,100739.19
2023-01-06T11:57:53.821Z,100745.19
2023-01-06T12:00:42.592Z,100729.22
2023-01-06T12:03:18.723Z,100701.91
2023-01-06T12:05:50.322Z,100722.41
2023-01-06T12:08:21.542Z,100721.78
2023-01-06T12:10:55.702Z,100696.91
2023-01-06T12:13:24.595Z,100712.84
2023-01-06T12:15:59.912Z,100709.97
2023-01-06T12:18:30.459Z,100712.47
2023-01-06T12:21:00.159Z,100707.47
2023-01-06T12:23:31.122Z,100716.00
2023-01-06T12:26:03.682Z,100712.25
2023-01-06T12:28:34.612Z,100706.44
2023-01-06T12:31:08.981Z,100699.41
2023-01-06T12:33:40.880Z,100702.50
2023-01-06T12:36:14.465Z,100710.38
2023-01-06T12:38:50.621Z,100709.56
2023-01-06T12:41:24.485Z,100709.53
2023-01-06T12:43:56.113Z,100705.00
2023-01-06T12:46:29.465Z,100706.84
2023-01-06T12:48:59.469Z,100683.63
2023-01-06T12:51:31.776Z,100705.84
2023-01-06T12:54:03.300Z,100711.22
2023-01-06T12:56:49.820Z,100593.69
2023-01-06T12:59:24.170Z,100702.09
2023-01-06T13:01:55.777Z,100698.56
2023-01-06T13:04:42.415Z,100704.53
2023-01-06T13:07:21.425Z,100696.47
2023-01-06T13:09:58.623Z,100691.25
2023-01-06T13:12:45.938Z,100690.22
2023-01-06T13:15:21.048Z,100674.44
2023-01-06T13:17:54.501Z,100692.91
2023-01-06T13:20:25.684Z,100705.56
2023-01-06T13:23:03.821Z,100709.06
2023-01-06T13:25:45.505Z,100689.59
2023-01-06T13:28:21.663Z,100695.59
2023-01-06T13:31:07.739Z,100692.28
2023-01-06T13:34:06.306Z,100702.19
2023-01-06T13:37:05.214Z,100704.69
2023-01-06T13:39:34.553Z,100584.28
2023-01-06T13:42:05.686Z,100683.53
2023-01-06T13:44:38.980Z,100702.41
2023-01-06T13:47:10.821Z,100705.91
2023-01-06T13:49:39.603Z,100676.69
2023-01-06T13:52:09.269Z,100584.66
2023-01-06T13:55:00.175Z,100711.28
2023-01-06T13:57:32.939Z,100684.34
2023-01-06T14:00:26.994Z,100710.47
2023-01-06T14:03:25.799Z,100704.06
2023-01-06T14:05:56.410Z,100701.56
2023-01-06T14:08:26.332Z,100678.97
2023-01-06T14:11:23.644Z,100710.03
2023-01-06T14:13:53.940Z,100692.88
2023-01-06T14:16:23.936Z,100717.91
2023-01-06T14:18:53.675Z,100699.06
2023-01-06T14:21:28.863Z,100697.41
2023-01-06T14:24:01.920Z,100709.41
2023-01-06T14:26:54.071Z,100705.69
2023-01-06T14:30:03.597Z,100713.97
2023-01-06T14:33:11.622Z,100707.94
2023-01-06T14:35:44.239Z,100712.28
2023-01-06T14:38:30.105Z,100719.75
2023-01-06T14:41:00.977Z,100706.06
2023-01-06T14:43:33.439Z,100711.00
2023-01-06T14:46:07.785Z,100724.50
2023-01-06T14:48:41.642Z,100712.03
2023-01-06T14:51:15.844Z,100717.22
2023-01-06T14:53:48.801Z,100591.06
2023-01-06T14:56:19.444Z,100637.75
2023-01-06T14:58:47.996Z,100720.31
2023-01-06T15:01:23.697Z,100716.53
2023-01-06T15:03:56.577Z,100696.16
2023-01-06T15:06:27.806Z,100727.66
2023-01-06T15:08:57.723Z,100712.34
2023-01-06T15:11:30.229Z,100716.88
2023-01-06T15:13:58.861Z,100723.50
2023-01-06T15:16:34.041Z,100707.31
2023-01-06T15:19:02.672Z,100729.06
2023-01-06T15:21:32.639Z,100713.31
2023-01-06T15:24:00.854Z,100725.13
2023-01-06T15:26:30.131Z,100723.00
2023-01-06T15:29:02.997Z,100721.97
2023-01-06T15:31:33.486Z,100716.53
2023-01-06T15:34:03.624Z,100728.50
2023-01-06T15:36:34.135Z,100727.28
2023-01-06T15:39:03.974Z,100723.38
2023-01-06T15:41:36.844Z,100719.81
2023-01-06T15:44:22.456Z,100732.81
2023-01-06T15:46:53.029Z,100730.78
2023-01-06T15:49:27.626Z,100737.59
2023-01-06T15:51:59.458Z,100717.03
2023-01-06T15:54:29.386Z,100730.00
2023-01-06T15:57:05.082Z,100737.91
2023-01-06T15:59:40.348Z,100719.75
2023-01-06T16:02:17.807Z,100728.72
2023-01-06T16:04:48.984Z,100727.81
2023-01-06T16:07:35.083Z,100741.13
2023-01-06T16:10:03.792Z,100744.59
2023-01-06T16:12:32.238Z,100755.34
2023-01-06T16:15:36.047Z,100750.94
2023-01-06T16:18:04.449Z,100759.19
2023-01-06T16:20:32.927Z,100749.41
2023-01-06T16:23:03.200Z,100757.44
2023-01-06T16:25:33.270Z,100748.50
2023-01-06T16:28:03.517Z,100749.63
2023-01-06T16:30:33.686Z,100744.66
2023-01-06T16:33:02.276Z,100741.31
2023-01-06T16:35:32.414Z,100737.78
2023-01-06T16:38:02.158Z,100729.88
2023-01-06T16:40:30.570Z,100741.66
2023-01-06T16:43:00.311Z,100740.16
2023-01-06T16:45:34.284Z,100737.22
2023-01-06T16:48:02.739Z,100753.25
2023-01-06T16:50:34.891Z,100753.19
2023-01-06T16:53:12.613Z,100644.41
2023-01-06T16:55:42.152Z,100748.63
2023-01-06T16:58:15.693Z,100747.88
2023-01-06T17:00:48.097Z,100721.97
2023-01-06T17:03:18.764Z,100750.97
2023-01-06T17:05:47.148Z,100759.78
2023-01-06T17:08:18.281Z,100760.53
2023-01-06T17:10:46.617Z,100753.84
2023-01-06T17:13:33.951Z,100765.31
2023-01-06T17:16:05.405Z,100765.69
2023-01-06T17:18:35.040Z,100739.88
2023-01-06T17:21:10.205Z,100744.03
2023-01-06T17:23:44.872Z,100773.91
2023-01-06T17:26:15.133Z,100769.72
2023-01-06T17:28:43.916Z,100766.78
2023-01-06T17:31:15.908Z,100755.88
2023-01-06T17:33:45.472Z,100757.53
2023-01-06T17:36:22.052Z,100774.06
2023-01-06T17:38:52.243Z,100772.41
2023-01-06T17:41:20.694Z,100772.59
2023-01-06T17:43:49.101Z,100776.94
2023-01-06T17:46:24.537Z,100777.31
2023-01-06T17:49:04.183Z,100778.13
2023-01-06T17:51:32.467Z,100766.84
2023-01-06T17:54:20.141Z,100776.66
2023-01-06T17:56:48.518Z,100771.47
2023-01-06T17:59:18.640Z,100770.94
2023-01-06T18:01:47.009Z,100763.25
2023-01-06T18:04:16.184Z,100765.19
2023-01-06T18:06:50.555Z,100763.16
2023-01-06T18:09:23.322Z,100773.50
2023-01-06T18:12:12.387Z,100766.84
2023-01-06T18:15:03.075Z,100768.25
2023-01-06T18:17:51.531Z,100772.03
2023-01-06T18:20:40.208Z,100755.50
2023-01-06T18:23:29.391Z,100729.34
2023-01-06T18:26:36.880Z,100753.28
2023-01-06T18:29:28.743Z,100768.06
2023-01-06T18:32:26.270Z,100765.88
2023-01-06T18:35:17.592Z,100756.50
2023-01-06T18:38:07.101Z,100769.03
2023-01-06T18:40:57.016Z,100771.69
2023-01-06T18:43:47.367Z,100772.97
2023-01-06T18:46:36.082Z,100766.16
2023-01-06T18:49:25.480Z,100786.03
2023-01-06T18:52:39.170Z,100779.75
2023-01-06T18:55:36.393Z,100783.78
2023-01-06T18:58:38.916Z,100777.13
2023-01-06T19:01:32.013Z,100770.94
2023-01-06T19:04:26.006Z,100756.63
2023-01-06T19:07:19.675Z,100772.78
2023-01-06T19:10:24.298Z,100772.78
2023-01-06T19:13:20.191Z,100786.75
2023-01-06T19:16:25.547Z,100767.97
2023-01-06T19:19:24.611Z,100783.13
2023-01-06T19:22:20.426Z,100776.94
2023-01-06T19:25:17.122Z,100744.13
2023-01-06T19:28:11.331Z,100763.75
2023-01-06T19:31:00.291Z,100784.84
2023-01-06T19:33:53.581Z,100783.63
2023-01-06T19:36:46.860Z,100784.84
2023-01-06T19:39:38.367Z,100784.00
2023-01-06T19:42:29.908Z,100780.66
2023-01-06T19:45:29.456Z,100785.66
2023-01-06T19:48:22.810Z,100777.16
2023-01-06T19:51:24.129Z,100766.06
2023-01-06T19:54:23.172Z,100675.03
2023-01-06T19:57:23.673Z,100758.03
2023-01-06T20:00:23.812Z,100765.88
2023-01-06T20:03:28.028Z,100757.00
2023-01-06T20:06:17.402Z,100747.75
2023-01-06T20:09:05.915Z,100760.69
2023-01-06T20:11:57.170Z,100747.56
2023-01-06T20:14:45.722Z,100552.81
2023-01-06T20:17:34.306Z,100742.94
2023-01-06T20:20:22.886Z,100523.56
2023-01-06T20:23:12.177Z,100757.00
2023-01-06T20:26:01.858Z,100756.72
2023-01-06T20:28:51.877Z,100758.97
2023-01-06T20:31:40.523Z,100754.13
2023-01-06T20:34:29.120Z,100756.50
2023-01-06T20:37:17.627Z,100760.28
2023-01-06T20:40:07.224Z,100743.28
2023-01-06T20:42:55.758Z,100757.72
2023-01-06T20:45:47.364Z,100743.66
2023-01-06T20:48:35.992Z,100740.06
2023-01-06T20:51:24.578Z,100750.22
2023-01-06T20:54:13.080Z,100752.06
2023-01-06T20:57:01.628Z,100730.72
2023-01-06T20:59:50.264Z,100742.56
2023-01-06T21:02:40.501Z,100746.53
2023-01-06T21:05:29.047Z,100745.91
2023-01-06T21:08:18.053Z,100739.88
2023-01-06T21:11:06.863Z,100736.47
2023-01-06T21:13:55.367Z,100735.63
2023-01-06T21:16:43.876Z,100728.97
2023-01-06T21:19:33.665Z,100734.44
2023-01-06T21:22:22.288Z,100728.25
2023-01-06T21:25:11.188Z,100733.41
2023-01-06T21:27:59.736Z,100729.53
2023-01-06T21:30:49.162Z,100730.00
2023-01-06T21:33:37.645Z,100729.28
2023-01-06T21:36:27.995Z,100737.03
2023-01-06T21:39:17.869Z,100730.28
2023-01-06T21:42:24.246Z,100727.31
2023-01-06T21:45:12.785Z,100731.41
2023-01-06T21:48:01.240Z,100722.97
2023-01-06T21:50:50.141Z,100712.66
2023-01-06T21:53:40.491Z,100711.44
2023-01-06T21:56:29.024Z,100715.50
2023-01-06T21:59:17.769Z,100713.44
2023-01-06T22:02:06.632Z,100721.31
2023-01-06T22:04:55.874Z,100727.88
2023-01-06T22:07:48.176Z,100726.47
2023-01-06T22:10:41.219Z,100720.56
2023-01-06T22:13:30.233Z,100716.44
2023-01-06T22:16:19.315Z,100711.25
2023-01-06T22:19:07.975Z,100704.88
2023-01-06T22:21:59.496Z,100709.28
2023-01-06T22:24:48.701Z,100708.00
2023-01-06T22:27:38.709Z,100687.88
2023-01-06T22:30:30.478Z,100706.63
2023-01-06T22:33:18.969Z,100697.91
2023-01-06T22:36:08.497Z,100688.22
2023-01-06T22:38:57.006Z,100699.53
2023-01-06T22:41:47.181Z,100607.06
2023-01-06T22:44:37.062Z,100687.50
2023-01-06T22:47:25.508Z,100704.22
2023-01-06T22:50:14.138Z,100700.50
2023-01-06T22:53:02.563Z,100695.16
2023-01-06T22:55:57.448Z,100670.22
2023-01-06T22:58:46.118Z,100701.19
2023-01-06T23:01:36.401Z,100691.56
2023-01-06T23:04:25.165Z,100697.75
2023-01-06T23:07:14.059Z,100686.41
2023-01-06T23:10:02.661Z,100690.91
2023-01-06T23:12:52.433Z,100684.16
2023-01-06T23:15:40.989Z,100683.16
2023-01-06T23:18:31.430Z,100685.00
2023-01-06T23:21:22.078Z,100682.47
2023-01-06T23:24:11.279Z,100692.16
2023-01-06T23:27:00.751Z,100695.13
2023-01-06T23:29:49.251Z,100688.13
2023-01-06T23:32:37.740Z,100686.06
2023-01-06T23:35:27.542Z,100679.94
2023-01-06T23:38:16.172Z,100679.66
2023-01-06T23:41:06.661Z,100680.53
2023-01-06T23:43:56.507Z,100671.16
2023-01-06T23:46:46.264Z,100676.59
2023-01-06T23:49:34.889Z,100679.38
2023-01-06T23:52:24.899Z,100674.63
2023-01-06T23:55:13.367Z,100675.59
2023-01-06T23:58:01.775Z,100632.13
